KLM1504 LEMD-EHAM
Flight info
| Callsign | KLM1504 |
|---|---|
| Flight time | 1h 57m |
| Altitude | 36000 |
| Route | RBO DCT OSTIX N867 DGO N858 ABRIX DCT CNA DCT ADABI DCT BOKNO UN858 VANAD UN874 BAMES UT191 PODEM UN873 BAZOS DCT LUMIL DCT BELOB UY873 DENUT |
| Aircraft | A21N/M-SDE2E3FGHIRWXY/LB1 |
Departure
| Time | 2026-04-30 10:49 |
|---|---|
| Airport | Adolfo Suárez Madrid–Barajas Airport (LEMD) |
Arrival
| Time | 2026-04-30 12:46 |
|---|---|
| Airport | Amsterdam Airport Schiphol (EHAM) |
| Time | Latitude | Longitude | Altitude | Speed | Heading |
|---|---|---|---|---|---|
| 2026-04-30 10:34 | 40.46321 | -3.56853 | 1983 ft | 0 kts | 291° |
| 2026-04-30 10:37 | 40.46316 | -3.56837 | 1986 ft | 4 kts | 290° |
| 2026-04-30 10:37 | 40.46306 | -3.56792 | 1984 ft | 4 kts | 281° |
| 2026-04-30 10:38 | 40.46302 | -3.56757 | 1984 ft | 4 kts | 270° |
| 2026-04-30 10:38 | 40.46304 | -3.56734 | 1983 ft | 4 kts | 253° |
| 2026-04-30 10:38 | 40.46312 | -3.56713 | 1984 ft | 1 kts | 229° |
| 2026-04-30 10:38 | 40.46314 | -3.56710 | 1984 ft | 0 kts | 229° |
| 2026-04-30 10:41 | 40.46313 | -3.56710 | 1983 ft | 0 kts | 228° |
| 2026-04-30 10:41 | 40.46295 | -3.56715 | 1987 ft | 10 kts | 174° |
| 2026-04-30 10:42 | 40.46231 | -3.56666 | 1988 ft | 12 kts | 121° |
| 2026-04-30 10:42 | 40.46218 | -3.56578 | 1986 ft | 0 kts | 93° |
| 2026-04-30 10:42 | 40.46218 | -3.56570 | 1985 ft | 3 kts | 93° |
| 2026-04-30 10:43 | 40.46227 | -3.56519 | 1986 ft | 8 kts | 55° |
| 2026-04-30 10:43 | 40.46291 | -3.56501 | 1983 ft | 12 kts | 0° |
| 2026-04-30 10:43 | 40.46387 | -3.56493 | 1985 ft | 16 kts | 6° |
| 2026-04-30 10:43 | 40.46515 | -3.56480 | 1987 ft | 21 kts | 3° |
| 2026-04-30 10:44 | 40.46673 | -3.56472 | 1987 ft | 25 kts | 2° |
| 2026-04-30 10:44 | 40.46856 | -3.56458 | 1983 ft | 28 kts | 4° |
| 2026-04-30 10:44 | 40.47059 | -3.56466 | 1983 ft | 30 kts | 346° |
| 2026-04-30 10:44 | 40.47247 | -3.56609 | 1986 ft | 33 kts | 321° |
| 2026-04-30 10:45 | 40.47427 | -3.56795 | 1985 ft | 34 kts | 321° |
| 2026-04-30 10:45 | 40.47620 | -3.56994 | 1986 ft | 36 kts | 321° |
| 2026-04-30 10:45 | 40.47825 | -3.57201 | 1986 ft | 38 kts | 322° |
| 2026-04-30 10:45 | 40.48038 | -3.57418 | 1985 ft | 39 kts | 322° |
| 2026-04-30 10:46 | 40.48258 | -3.57642 | 1986 ft | 41 kts | 322° |
| 2026-04-30 10:46 | 40.48494 | -3.57858 | 1986 ft | 42 kts | 330° |
| 2026-04-30 10:46 | 40.48702 | -3.57937 | 1983 ft | 0 kts | 359° |
| 2026-04-30 10:46 | 40.48739 | -3.57937 | 1983 ft | 18 kts | 359° |
| 2026-04-30 10:47 | 40.48902 | -3.57937 | 1983 ft | 26 kts | 0° |
| 2026-04-30 10:47 | 40.49092 | -3.57937 | 1983 ft | 29 kts | 360° |
| 2026-04-30 10:47 | 40.49240 | -3.57917 | 1985 ft | 12 kts | 44° |
| 2026-04-30 10:47 | 40.49246 | -3.57885 | 1983 ft | 5 kts | 93° |
| 2026-04-30 10:48 | 40.49245 | -3.57829 | 1983 ft | 9 kts | 91° |
| 2026-04-30 10:48 | 40.49245 | -3.57727 | 1983 ft | 14 kts | 89° |
| 2026-04-30 10:48 | 40.49262 | -3.57587 | 1984 ft | 18 kts | 64° |
| 2026-04-30 10:48 | 40.49357 | -3.57469 | 1987 ft | 21 kts | 9° |
| 2026-04-30 10:49 | 40.49625 | -3.57463 | 1983 ft | 66 kts | 360° |
| 2026-04-30 10:49 | 40.50335 | -3.57465 | 1986 ft | 140 kts | 360° |
| 2026-04-30 10:49 | 40.51543 | -3.57474 | 2015 ft | 199 kts | 359° |
| 2026-04-30 10:49 | 40.52963 | -3.57489 | 2611 ft | 209 kts | 359° |
| 2026-04-30 10:50 | 40.54423 | -3.57490 | 3541 ft | 211 kts | 4° |
| 2026-04-30 10:50 | 40.55929 | -3.57167 | 4176 ft | 231 kts | 13° |
| 2026-04-30 10:50 | 40.57532 | -3.56598 | 4837 ft | 244 kts | 15° |
| 2026-04-30 10:50 | 40.59174 | -3.55969 | 5717 ft | 248 kts | 16° |
| 2026-04-30 10:51 | 40.60815 | -3.55342 | 6579 ft | 251 kts | 15° |
| 2026-04-30 10:51 | 40.62500 | -3.54704 | 7402 ft | 253 kts | 15° |
| 2026-04-30 10:51 | 40.64231 | -3.54231 | 8215 ft | 255 kts | 5° |
| 2026-04-30 10:51 | 40.66012 | -3.54018 | 9008 ft | 259 kts | 2° |
| 2026-04-30 10:52 | 40.67822 | -3.53862 | 9817 ft | 263 kts | 2° |
| 2026-04-30 10:52 | 40.69633 | -3.53456 | 10535 ft | 268 kts | 20° |
| 2026-04-30 10:52 | 40.71197 | -3.52063 | 11094 ft | 283 kts | 47° |
| 2026-04-30 10:52 | 40.72451 | -3.49931 | 11382 ft | 306 kts | 55° |
| 2026-04-30 10:53 | 40.73681 | -3.47505 | 11674 ft | 329 kts | 56° |
| 2026-04-30 10:53 | 40.74984 | -3.44908 | 11969 ft | 350 kts | 56° |
| 2026-04-30 10:53 | 40.76354 | -3.42208 | 12374 ft | 367 kts | 55° |
| 2026-04-30 10:53 | 40.77805 | -3.39377 | 12971 ft | 376 kts | 55° |
| 2026-04-30 10:54 | 40.79285 | -3.36501 | 13725 ft | 381 kts | 55° |
| 2026-04-30 10:54 | 40.80784 | -3.33597 | 14409 ft | 385 kts | 54° |
| 2026-04-30 10:54 | 40.82306 | -3.30670 | 15089 ft | 388 kts | 53° |
| 2026-04-30 10:54 | 40.84042 | -3.27924 | 15756 ft | 391 kts | 43° |
| 2026-04-30 10:55 | 40.86176 | -3.25689 | 16444 ft | 392 kts | 30° |
| 2026-04-30 10:55 | 40.88636 | -3.24150 | 17105 ft | 392 kts | 15° |
| 2026-04-30 10:55 | 40.91282 | -3.23203 | 17753 ft | 394 kts | 10° |
| 2026-04-30 10:55 | 40.93984 | -3.22495 | 18402 ft | 398 kts | 7° |
| 2026-04-30 10:56 | 40.96727 | -3.21905 | 18941 ft | 401 kts | 6° |
| 2026-04-30 10:56 | 40.99496 | -3.21354 | 19506 ft | 404 kts | 5° |
| 2026-04-30 10:56 | 41.02285 | -3.20799 | 20060 ft | 407 kts | 6° |
| 2026-04-30 10:56 | 41.05092 | -3.20221 | 20606 ft | 410 kts | 6° |
| 2026-04-30 10:57 | 41.07885 | -3.19625 | 21142 ft | 413 kts | 6° |
| 2026-04-30 10:57 | 41.10763 | -3.18993 | 21686 ft | 416 kts | 6° |
| 2026-04-30 10:57 | 41.13587 | -3.18362 | 22232 ft | 419 kts | 6° |
| 2026-04-30 10:57 | 41.16476 | -3.17711 | 22758 ft | 422 kts | 6° |
| 2026-04-30 10:58 | 41.19379 | -3.17053 | 23288 ft | 425 kts | 6° |
| 2026-04-30 10:58 | 41.22301 | -3.16390 | 23783 ft | 428 kts | 6° |
| 2026-04-30 10:58 | 41.25240 | -3.15724 | 24176 ft | 431 kts | 6° |
| 2026-04-30 10:58 | 41.28207 | -3.15050 | 24560 ft | 434 kts | 6° |
| 2026-04-30 10:59 | 41.31204 | -3.14371 | 24939 ft | 437 kts | 6° |
| 2026-04-30 10:59 | 41.34207 | -3.13690 | 25337 ft | 440 kts | 6° |
| 2026-04-30 10:59 | 41.37235 | -3.13004 | 25718 ft | 443 kts | 6° |
| 2026-04-30 10:59 | 41.40283 | -3.12312 | 26071 ft | 446 kts | 5° |
| 2026-04-30 11:00 | 41.43352 | -3.11616 | 26427 ft | 449 kts | 5° |
| 2026-04-30 11:00 | 41.46447 | -3.10913 | 26759 ft | 452 kts | 5° |
| 2026-04-30 11:00 | 41.49555 | -3.10207 | 27089 ft | 454 kts | 5° |
| 2026-04-30 11:00 | 41.52680 | -3.09497 | 27431 ft | 457 kts | 5° |
| 2026-04-30 11:01 | 41.55820 | -3.08784 | 27788 ft | 458 kts | 5° |
| 2026-04-30 11:01 | 41.58972 | -3.08069 | 28105 ft | 461 kts | 5° |
| 2026-04-30 11:01 | 41.62141 | -3.07349 | 28389 ft | 463 kts | 5° |
| 2026-04-30 11:01 | 41.65328 | -3.06625 | 28704 ft | 465 kts | 5° |
| 2026-04-30 11:02 | 41.68482 | -3.05906 | 29113 ft | 464 kts | 5° |
| 2026-04-30 11:02 | 41.71667 | -3.05179 | 29518 ft | 464 kts | 5° |
| 2026-04-30 11:02 | 41.74851 | -3.04451 | 29928 ft | 464 kts | 5° |
| 2026-04-30 11:02 | 41.78032 | -3.03719 | 30349 ft | 462 kts | 5° |
| 2026-04-30 11:03 | 41.81189 | -3.02991 | 30693 ft | 461 kts | 5° |
| 2026-04-30 11:03 | 41.84359 | -3.02260 | 30990 ft | 461 kts | 4° |
| 2026-04-30 11:03 | 41.87515 | -3.01531 | 31288 ft | 461 kts | 4° |
| 2026-04-30 11:04 | 41.93836 | -3.00071 | 31868 ft | 461 kts | 4° |
| 2026-04-30 11:04 | 41.96992 | -2.99341 | 32196 ft | 459 kts | 4° |
| 2026-04-30 11:04 | 42.00137 | -2.98612 | 32526 ft | 458 kts | 4° |
| 2026-04-30 11:04 | 42.03275 | -2.97885 | 32833 ft | 457 kts | 4° |
| 2026-04-30 11:05 | 42.06418 | -2.97156 | 33084 ft | 457 kts | 4° |
| 2026-04-30 11:05 | 42.09555 | -2.96427 | 33332 ft | 458 kts | 4° |
| 2026-04-30 11:05 | 42.12693 | -2.95698 | 33595 ft | 457 kts | 4° |
| 2026-04-30 11:05 | 42.15837 | -2.94967 | 33824 ft | 457 kts | 3° |
| 2026-04-30 11:06 | 42.18972 | -2.94236 | 34077 ft | 457 kts | 4° |
| 2026-04-30 11:06 | 42.22102 | -2.93505 | 34260 ft | 456 kts | 4° |
| 2026-04-30 11:06 | 42.25230 | -2.92775 | 34486 ft | 456 kts | 4° |
| 2026-04-30 11:06 | 42.28346 | -2.92045 | 34674 ft | 455 kts | 4° |
| 2026-04-30 11:07 | 42.31468 | -2.91315 | 34781 ft | 455 kts | 4° |
| 2026-04-30 11:07 | 42.34591 | -2.90583 | 34921 ft | 455 kts | 4° |
| 2026-04-30 11:07 | 42.37707 | -2.89853 | 35127 ft | 454 kts | 4° |
| 2026-04-30 11:07 | 42.40817 | -2.89125 | 35284 ft | 454 kts | 4° |
| 2026-04-30 11:08 | 42.43912 | -2.88198 | 35409 ft | 459 kts | 12° |
| 2026-04-30 11:08 | 42.46883 | -2.86674 | 35536 ft | 465 kts | 20° |
| 2026-04-30 11:08 | 42.49791 | -2.84731 | 35672 ft | 467 kts | 22° |
| 2026-04-30 11:08 | 42.52658 | -2.82664 | 35822 ft | 467 kts | 24° |
| 2026-04-30 11:09 | 42.55494 | -2.80532 | 35970 ft | 467 kts | 25° |
| 2026-04-30 11:09 | 42.58333 | -2.78360 | 36080 ft | 468 kts | 25° |
| 2026-04-30 11:09 | 42.61173 | -2.76177 | 36081 ft | 469 kts | 25° |
| 2026-04-30 11:10 | 42.66856 | -2.71822 | 36085 ft | 468 kts | 25° |
| 2026-04-30 11:10 | 42.72538 | -2.67492 | 36094 ft | 468 kts | 25° |
| 2026-04-30 11:11 | 42.78227 | -2.63163 | 36099 ft | 469 kts | 25° |
| 2026-04-30 11:11 | 42.83922 | -2.58822 | 36099 ft | 469 kts | 25° |
| 2026-04-30 11:12 | 42.89620 | -2.54470 | 36068 ft | 470 kts | 25° |
| 2026-04-30 11:12 | 42.95326 | -2.50100 | 36072 ft | 470 kts | 25° |
| 2026-04-30 11:13 | 43.01020 | -2.45728 | 36063 ft | 470 kts | 25° |
| 2026-04-30 11:13 | 43.06702 | -2.41355 | 36073 ft | 468 kts | 25° |
| 2026-04-30 11:14 | 43.12372 | -2.36986 | 36072 ft | 468 kts | 25° |
| 2026-04-30 11:14 | 43.18010 | -2.32633 | 36075 ft | 468 kts | 25° |
| 2026-04-30 11:15 | 43.23686 | -2.28241 | 36074 ft | 468 kts | 25° |
| 2026-04-30 11:15 | 43.29361 | -2.23839 | 36077 ft | 469 kts | 25° |
| 2026-04-30 11:16 | 43.35039 | -2.19428 | 36072 ft | 469 kts | 25° |
| 2026-04-30 11:16 | 43.40717 | -2.15007 | 36073 ft | 469 kts | 25° |
| 2026-04-30 11:17 | 43.46389 | -2.10580 | 36072 ft | 468 kts | 26° |
| 2026-04-30 11:17 | 43.52055 | -2.06146 | 36076 ft | 468 kts | 26° |
| 2026-04-30 11:18 | 43.57723 | -2.01700 | 36083 ft | 468 kts | 26° |
| 2026-04-30 11:18 | 43.66201 | -1.95034 | 36077 ft | 467 kts | 26° |
| 2026-04-30 11:19 | 43.71841 | -1.90583 | 36073 ft | 467 kts | 26° |
| 2026-04-30 11:19 | 43.77484 | -1.86122 | 36083 ft | 468 kts | 26° |
| 2026-04-30 11:20 | 43.83096 | -1.81675 | 36087 ft | 468 kts | 27° |
| 2026-04-30 11:20 | 43.88729 | -1.77201 | 36075 ft | 466 kts | 27° |
| 2026-04-30 11:21 | 43.94354 | -1.72724 | 36076 ft | 465 kts | 27° |
| 2026-04-30 11:21 | 43.99869 | -1.68324 | 36075 ft | 465 kts | 27° |
| 2026-04-30 11:22 | 44.05564 | -1.63773 | 36076 ft | 464 kts | 28° |
| 2026-04-30 11:22 | 44.11155 | -1.59294 | 36075 ft | 463 kts | 28° |
| 2026-04-30 11:23 | 44.16730 | -1.54817 | 36075 ft | 462 kts | 28° |
| 2026-04-30 11:24 | 44.25096 | -1.48082 | 36075 ft | 464 kts | 28° |
| 2026-04-30 11:24 | 44.30640 | -1.43606 | 36075 ft | 463 kts | 28° |
| 2026-04-30 11:25 | 44.39007 | -1.36832 | 36075 ft | 463 kts | 29° |
| 2026-04-30 11:26 | 44.50122 | -1.27798 | 36075 ft | 461 kts | 29° |
| 2026-04-30 11:26 | 44.55634 | -1.23303 | 36085 ft | 460 kts | 29° |
| 2026-04-30 11:27 | 44.60153 | -1.19608 | 36073 ft | 460 kts | 30° |
| 2026-04-30 11:27 | 44.65706 | -1.15062 | 36074 ft | 460 kts | 30° |
| 2026-04-30 11:28 | 44.73966 | -1.08282 | 36076 ft | 460 kts | 30° |
| 2026-04-30 11:29 | 44.79512 | -1.03718 | 36078 ft | 460 kts | 30° |
| 2026-04-30 11:29 | 44.87755 | -0.96908 | 36073 ft | 459 kts | 30° |
| 2026-04-30 11:30 | 44.96114 | -0.89983 | 36077 ft | 460 kts | 30° |
| 2026-04-30 11:31 | 45.01625 | -0.85406 | 36076 ft | 459 kts | 31° |
| 2026-04-30 11:31 | 45.07111 | -0.80838 | 36078 ft | 457 kts | 31° |
| 2026-04-30 11:32 | 45.12549 | -0.76300 | 36073 ft | 457 kts | 31° |
| 2026-04-30 11:32 | 45.18019 | -0.71724 | 36081 ft | 456 kts | 31° |
| 2026-04-30 11:33 | 45.26197 | -0.64866 | 36076 ft | 453 kts | 32° |
| 2026-04-30 11:33 | 45.31613 | -0.60310 | 36086 ft | 453 kts | 32° |
| 2026-04-30 11:34 | 45.37036 | -0.55737 | 36091 ft | 453 kts | 32° |
| 2026-04-30 11:34 | 45.42439 | -0.51172 | 36092 ft | 451 kts | 32° |
| 2026-04-30 11:35 | 45.47837 | -0.46602 | 36097 ft | 451 kts | 32° |
| 2026-04-30 11:35 | 45.53222 | -0.42030 | 36098 ft | 450 kts | 32° |
| 2026-04-30 11:36 | 45.58604 | -0.37452 | 36098 ft | 450 kts | 32° |
| 2026-04-30 11:36 | 45.63972 | -0.32876 | 36100 ft | 448 kts | 32° |
| 2026-04-30 11:37 | 45.69276 | -0.28212 | 36106 ft | 448 kts | 34° |
| 2026-04-30 11:37 | 45.74513 | -0.23386 | 36099 ft | 448 kts | 34° |
| 2026-04-30 11:38 | 45.79739 | -0.18534 | 36097 ft | 448 kts | 35° |
| 2026-04-30 11:38 | 45.84934 | -0.13722 | 36099 ft | 448 kts | 35° |
| 2026-04-30 11:39 | 45.90203 | -0.08847 | 36094 ft | 447 kts | 35° |
| 2026-04-30 11:39 | 45.95433 | -0.04000 | 36092 ft | 447 kts | 35° |
| 2026-04-30 11:40 | 46.00563 | 0.00765 | 36096 ft | 447 kts | 35° |
| 2026-04-30 11:40 | 46.05790 | 0.05633 | 36103 ft | 447 kts | 35° |
| 2026-04-30 11:41 | 46.11011 | 0.10504 | 36092 ft | 447 kts | 35° |
| 2026-04-30 11:41 | 46.16230 | 0.15386 | 36094 ft | 447 kts | 35° |
| 2026-04-30 11:42 | 46.21463 | 0.20293 | 36084 ft | 447 kts | 35° |
| 2026-04-30 11:42 | 46.26646 | 0.25163 | 36075 ft | 447 kts | 35° |
| 2026-04-30 11:43 | 46.31855 | 0.30069 | 36083 ft | 447 kts | 35° |
| 2026-04-30 11:43 | 46.37062 | 0.34985 | 36081 ft | 447 kts | 35° |
| 2026-04-30 11:44 | 46.42271 | 0.39914 | 36097 ft | 447 kts | 35° |
| 2026-04-30 11:44 | 46.47464 | 0.44840 | 36101 ft | 447 kts | 34° |
| 2026-04-30 11:45 | 46.52674 | 0.49792 | 36102 ft | 447 kts | 34° |
| 2026-04-30 11:45 | 46.58296 | 0.53591 | 36099 ft | 449 kts | 17° |
| 2026-04-30 11:46 | 46.64356 | 0.55889 | 36098 ft | 450 kts | 14° |
| 2026-04-30 11:46 | 46.70474 | 0.57885 | 36099 ft | 451 kts | 13° |
| 2026-04-30 11:47 | 46.76566 | 0.59837 | 36096 ft | 451 kts | 13° |
| 2026-04-30 11:47 | 46.82687 | 0.61836 | 36095 ft | 451 kts | 14° |
| 2026-04-30 11:48 | 46.88805 | 0.63861 | 36098 ft | 451 kts | 14° |
| 2026-04-30 11:48 | 46.94919 | 0.65896 | 36094 ft | 451 kts | 14° |
| 2026-04-30 11:49 | 47.01038 | 0.67937 | 36095 ft | 450 kts | 14° |
| 2026-04-30 11:49 | 47.07225 | 0.69364 | 36098 ft | 451 kts | 6° |
| 2026-04-30 11:50 | 47.13482 | 0.70126 | 36098 ft | 451 kts | 5° |
| 2026-04-30 11:50 | 47.19749 | 0.70764 | 36098 ft | 451 kts | 5° |
| 2026-04-30 11:51 | 47.25964 | 0.71388 | 36101 ft | 450 kts | 5° |
| 2026-04-30 11:51 | 47.32214 | 0.72032 | 36102 ft | 450 kts | 5° |
| 2026-04-30 11:52 | 47.38462 | 0.72687 | 36099 ft | 450 kts | 5° |
| 2026-04-30 11:52 | 47.44702 | 0.73344 | 36103 ft | 449 kts | 5° |
| 2026-04-30 11:53 | 47.50852 | 0.74687 | 36104 ft | 446 kts | 17° |
| 2026-04-30 11:53 | 47.56793 | 0.77335 | 36103 ft | 446 kts | 19° |
| 2026-04-30 11:54 | 47.62681 | 0.80234 | 36100 ft | 446 kts | 20° |
| 2026-04-30 11:54 | 47.68517 | 0.83157 | 36100 ft | 445 kts | 20° |
| 2026-04-30 11:55 | 47.74400 | 0.86088 | 36099 ft | 445 kts | 20° |
| 2026-04-30 11:55 | 47.80279 | 0.89005 | 36097 ft | 445 kts | 20° |
| 2026-04-30 11:56 | 47.86162 | 0.91938 | 36099 ft | 446 kts | 20° |
| 2026-04-30 11:56 | 47.92046 | 0.94905 | 36099 ft | 446 kts | 20° |
| 2026-04-30 11:57 | 47.97930 | 0.97886 | 36097 ft | 446 kts | 20° |
| 2026-04-30 11:57 | 48.03813 | 1.00872 | 36098 ft | 446 kts | 20° |
| 2026-04-30 11:58 | 48.09663 | 1.03848 | 36103 ft | 446 kts | 20° |
| 2026-04-30 11:58 | 48.15547 | 1.06848 | 36107 ft | 447 kts | 21° |
| 2026-04-30 11:59 | 48.21430 | 1.09853 | 36113 ft | 446 kts | 20° |
| 2026-04-30 11:59 | 48.27303 | 1.12849 | 36114 ft | 446 kts | 20° |
| 2026-04-30 12:00 | 48.33184 | 1.15851 | 36123 ft | 446 kts | 21° |
| 2026-04-30 12:00 | 48.39059 | 1.18856 | 36128 ft | 446 kts | 20° |
| 2026-04-30 12:01 | 48.44900 | 1.21847 | 36124 ft | 446 kts | 20° |
| 2026-04-30 12:01 | 48.50766 | 1.24861 | 36127 ft | 446 kts | 20° |
| 2026-04-30 12:02 | 48.56645 | 1.27882 | 36130 ft | 446 kts | 21° |
| 2026-04-30 12:02 | 48.62529 | 1.30852 | 36125 ft | 446 kts | 21° |
| 2026-04-30 12:03 | 48.71354 | 1.35292 | 36129 ft | 445 kts | 21° |
| 2026-04-30 12:04 | 48.77235 | 1.38267 | 36137 ft | 445 kts | 21° |
| 2026-04-30 12:04 | 48.83116 | 1.41252 | 36143 ft | 446 kts | 21° |
| 2026-04-30 12:05 | 48.88995 | 1.44244 | 36141 ft | 446 kts | 21° |
| 2026-04-30 12:05 | 48.94874 | 1.47244 | 36151 ft | 446 kts | 21° |
| 2026-04-30 12:06 | 49.00932 | 1.49364 | 36148 ft | 448 kts | 12° |
| 2026-04-30 12:06 | 49.07093 | 1.50895 | 36157 ft | 449 kts | 11° |
| 2026-04-30 12:07 | 49.13274 | 1.52316 | 36161 ft | 449 kts | 11° |
| 2026-04-30 12:07 | 49.19459 | 1.53738 | 36169 ft | 449 kts | 11° |
| 2026-04-30 12:08 | 49.25416 | 1.56307 | 36165 ft | 442 kts | 29° |
| 2026-04-30 12:08 | 49.30434 | 1.61547 | 36164 ft | 436 kts | 44° |
| 2026-04-30 12:09 | 49.34893 | 1.67833 | 36175 ft | 435 kts | 47° |
| 2026-04-30 12:09 | 49.39238 | 1.74303 | 36170 ft | 435 kts | 47° |
| 2026-04-30 12:10 | 49.43584 | 1.80773 | 36178 ft | 434 kts | 47° |
| 2026-04-30 12:10 | 49.47900 | 1.87153 | 36194 ft | 433 kts | 47° |
| 2026-04-30 12:11 | 49.52383 | 1.93338 | 36197 ft | 434 kts | 41° |
| 2026-04-30 12:11 | 49.57194 | 1.98950 | 36178 ft | 433 kts | 39° |
| 2026-04-30 12:12 | 49.62051 | 2.04445 | 36196 ft | 433 kts | 39° |
| 2026-04-30 12:12 | 49.66908 | 2.09926 | 36180 ft | 433 kts | 39° |
| 2026-04-30 12:13 | 49.71772 | 2.15446 | 36183 ft | 433 kts | 39° |
| 2026-04-30 12:13 | 49.76617 | 2.20970 | 36181 ft | 432 kts | 39° |
| 2026-04-30 12:14 | 49.81424 | 2.26467 | 36198 ft | 432 kts | 39° |
| 2026-04-30 12:14 | 49.86255 | 2.32007 | 36207 ft | 432 kts | 39° |
| 2026-04-30 12:15 | 49.91079 | 2.37552 | 36209 ft | 432 kts | 39° |
| 2026-04-30 12:15 | 49.95906 | 2.43114 | 36212 ft | 432 kts | 39° |
| 2026-04-30 12:16 | 50.00733 | 2.48692 | 36211 ft | 433 kts | 39° |
| 2026-04-30 12:16 | 50.04743 | 2.53335 | 36212 ft | 433 kts | 40° |
| 2026-04-30 12:17 | 50.11983 | 2.61744 | 36213 ft | 433 kts | 39° |
| 2026-04-30 12:17 | 50.17626 | 2.68320 | 36211 ft | 433 kts | 40° |
| 2026-04-30 12:18 | 50.21642 | 2.73014 | 36220 ft | 434 kts | 40° |
| 2026-04-30 12:18 | 50.26469 | 2.78667 | 36227 ft | 434 kts | 40° |
| 2026-04-30 12:19 | 50.31299 | 2.84338 | 36236 ft | 433 kts | 40° |
| 2026-04-30 12:19 | 50.36117 | 2.90011 | 36237 ft | 433 kts | 40° |
| 2026-04-30 12:20 | 50.40922 | 2.95636 | 36238 ft | 435 kts | 37° |
| 2026-04-30 12:20 | 50.46156 | 3.00458 | 36239 ft | 437 kts | 32° |
| 2026-04-30 12:21 | 50.51505 | 3.05012 | 35996 ft | 436 kts | 31° |
| 2026-04-30 12:21 | 50.54180 | 3.07256 | 35741 ft | 436 kts | 31° |
| 2026-04-30 12:21 | 50.56861 | 3.09503 | 35490 ft | 436 kts | 31° |
| 2026-04-30 12:22 | 50.59536 | 3.11752 | 35241 ft | 436 kts | 32° |
| 2026-04-30 12:22 | 50.62210 | 3.14009 | 34989 ft | 436 kts | 32° |
| 2026-04-30 12:22 | 50.64884 | 3.16274 | 34755 ft | 436 kts | 32° |
| 2026-04-30 12:22 | 50.67522 | 3.18513 | 34524 ft | 437 kts | 32° |
| 2026-04-30 12:23 | 50.70196 | 3.20788 | 34281 ft | 437 kts | 32° |
| 2026-04-30 12:23 | 50.72874 | 3.23036 | 34006 ft | 437 kts | 32° |
| 2026-04-30 12:23 | 50.75570 | 3.25282 | 33738 ft | 437 kts | 32° |
| 2026-04-30 12:23 | 50.78258 | 3.27521 | 33469 ft | 437 kts | 32° |
| 2026-04-30 12:24 | 50.80940 | 3.29756 | 32857 ft | 435 kts | 31° |
| 2026-04-30 12:24 | 50.83614 | 3.31989 | 32151 ft | 435 kts | 31° |
| 2026-04-30 12:24 | 50.86290 | 3.34227 | 31438 ft | 435 kts | 31° |
| 2026-04-30 12:24 | 50.88966 | 3.36467 | 30815 ft | 433 kts | 31° |
| 2026-04-30 12:25 | 50.91611 | 3.38683 | 30349 ft | 427 kts | 31° |
| 2026-04-30 12:25 | 50.94226 | 3.40877 | 29785 ft | 423 kts | 31° |
| 2026-04-30 12:25 | 50.96809 | 3.43047 | 29277 ft | 417 kts | 31° |
| 2026-04-30 12:25 | 50.99357 | 3.45191 | 28782 ft | 412 kts | 31° |
| 2026-04-30 12:26 | 51.01874 | 3.47312 | 28302 ft | 407 kts | 31° |
| 2026-04-30 12:26 | 51.04366 | 3.49415 | 27789 ft | 402 kts | 31° |
| 2026-04-30 12:26 | 51.06826 | 3.51493 | 27291 ft | 398 kts | 31° |
| 2026-04-30 12:26 | 51.09260 | 3.53553 | 26799 ft | 394 kts | 31° |
| 2026-04-30 12:27 | 51.11671 | 3.55595 | 26312 ft | 391 kts | 31° |
| 2026-04-30 12:27 | 51.14061 | 3.57622 | 25828 ft | 388 kts | 31° |
| 2026-04-30 12:27 | 51.16401 | 3.59608 | 25344 ft | 385 kts | 31° |
| 2026-04-30 12:27 | 51.18753 | 3.61608 | 24873 ft | 382 kts | 31° |
| 2026-04-30 12:28 | 51.21093 | 3.63589 | 24384 ft | 380 kts | 30° |
| 2026-04-30 12:28 | 51.23554 | 3.65145 | 23918 ft | 384 kts | 17° |
| 2026-04-30 12:28 | 51.26232 | 3.65684 | 23385 ft | 394 kts | 5° |
| 2026-04-30 12:28 | 51.28987 | 3.65682 | 22876 ft | 396 kts | 2° |
| 2026-04-30 12:29 | 51.31734 | 3.65579 | 22402 ft | 394 kts | 1° |
| 2026-04-30 12:29 | 51.34464 | 3.65470 | 21920 ft | 391 kts | 2° |
| 2026-04-30 12:29 | 51.37185 | 3.65370 | 21440 ft | 389 kts | 1° |
| 2026-04-30 12:29 | 51.39882 | 3.65277 | 20967 ft | 386 kts | 2° |
| 2026-04-30 12:30 | 51.42562 | 3.65188 | 20493 ft | 384 kts | 2° |
| 2026-04-30 12:30 | 51.45229 | 3.65104 | 20021 ft | 382 kts | 1° |
| 2026-04-30 12:30 | 51.47881 | 3.65021 | 19565 ft | 380 kts | 2° |
| 2026-04-30 12:30 | 51.50520 | 3.64939 | 19086 ft | 378 kts | 2° |
| 2026-04-30 12:31 | 51.53111 | 3.64859 | 18634 ft | 377 kts | 2° |
| 2026-04-30 12:31 | 51.55723 | 3.64778 | 18125 ft | 374 kts | 2° |
| 2026-04-30 12:31 | 51.58316 | 3.64697 | 17658 ft | 371 kts | 3° |
| 2026-04-30 12:31 | 51.60891 | 3.64618 | 17208 ft | 369 kts | 2° |
| 2026-04-30 12:32 | 51.63444 | 3.64540 | 16760 ft | 365 kts | 3° |
| 2026-04-30 12:32 | 51.65976 | 3.64462 | 16324 ft | 363 kts | 3° |
| 2026-04-30 12:32 | 51.68486 | 3.64449 | 15875 ft | 358 kts | 8° |
| 2026-04-30 12:32 | 51.70882 | 3.65235 | 15444 ft | 347 kts | 26° |
| 2026-04-30 12:33 | 51.72898 | 3.67207 | 15026 ft | 335 kts | 46° |
| 2026-04-30 12:33 | 51.74381 | 3.70036 | 14621 ft | 329 kts | 58° |
| 2026-04-30 12:33 | 51.75633 | 3.73126 | 14213 ft | 328 kts | 60° |
| 2026-04-30 12:33 | 51.76837 | 3.76230 | 13778 ft | 326 kts | 60° |
| 2026-04-30 12:34 | 51.78038 | 3.79326 | 13378 ft | 324 kts | 60° |
| 2026-04-30 12:34 | 51.79236 | 3.82402 | 12971 ft | 323 kts | 60° |
| 2026-04-30 12:34 | 51.80433 | 3.85466 | 12580 ft | 321 kts | 60° |
| 2026-04-30 12:34 | 51.81624 | 3.88508 | 12199 ft | 320 kts | 60° |
| 2026-04-30 12:35 | 51.82791 | 3.91490 | 11793 ft | 316 kts | 61° |
| 2026-04-30 12:35 | 51.83962 | 3.94480 | 11412 ft | 313 kts | 61° |
| 2026-04-30 12:35 | 51.85122 | 3.97443 | 11106 ft | 306 kts | 61° |
| 2026-04-30 12:35 | 51.86240 | 4.00298 | 10855 ft | 296 kts | 61° |
| 2026-04-30 12:36 | 51.87325 | 4.03076 | 10521 ft | 289 kts | 61° |
| 2026-04-30 12:36 | 51.88383 | 4.05789 | 10235 ft | 280 kts | 62° |
| 2026-04-30 12:36 | 51.89415 | 4.08439 | 9808 ft | 277 kts | 62° |
| 2026-04-30 12:36 | 51.90442 | 4.11085 | 9295 ft | 277 kts | 62° |
| 2026-04-30 12:37 | 51.91617 | 4.13559 | 8855 ft | 279 kts | 50° |
| 2026-04-30 12:37 | 51.93065 | 4.15671 | 8333 ft | 282 kts | 45° |
| 2026-04-30 12:37 | 51.94584 | 4.17677 | 7886 ft | 280 kts | 44° |
| 2026-04-30 12:37 | 51.96095 | 4.19645 | 7490 ft | 276 kts | 44° |
| 2026-04-30 12:38 | 51.97581 | 4.21587 | 7151 ft | 273 kts | 44° |
| 2026-04-30 12:38 | 51.99057 | 4.23530 | 6814 ft | 273 kts | 44° |
| 2026-04-30 12:38 | 52.00622 | 4.25299 | 6475 ft | 276 kts | 35° |
| 2026-04-30 12:38 | 52.02324 | 4.26773 | 6130 ft | 277 kts | 33° |
| 2026-04-30 12:39 | 52.04034 | 4.28201 | 5777 ft | 276 kts | 33° |
| 2026-04-30 12:39 | 52.05736 | 4.29614 | 5523 ft | 274 kts | 33° |
| 2026-04-30 12:39 | 52.07263 | 4.31349 | 5487 ft | 263 kts | 57° |
| 2026-04-30 12:39 | 52.08318 | 4.33732 | 5242 ft | 260 kts | 59° |
| 2026-04-30 12:40 | 52.09425 | 4.36024 | 4742 ft | 263 kts | 56° |
| 2026-04-30 12:40 | 52.10663 | 4.38227 | 4251 ft | 265 kts | 52° |
| 2026-04-30 12:40 | 52.11985 | 4.40303 | 3881 ft | 262 kts | 50° |
| 2026-04-30 12:40 | 52.13319 | 4.42245 | 3678 ft | 252 kts | 49° |
| 2026-04-30 12:41 | 52.14614 | 4.44057 | 3519 ft | 239 kts | 48° |
| 2026-04-30 12:41 | 52.15863 | 4.45773 | 3308 ft | 230 kts | 48° |
| 2026-04-30 12:41 | 52.17091 | 4.47457 | 2887 ft | 231 kts | 46° |
| 2026-04-30 12:41 | 52.18326 | 4.49137 | 2499 ft | 230 kts | 45° |
| 2026-04-30 12:42 | 52.19546 | 4.50781 | 2229 ft | 224 kts | 45° |
| 2026-04-30 12:42 | 52.20642 | 4.52487 | 2001 ft | 213 kts | 56° |
| 2026-04-30 12:42 | 52.21478 | 4.54450 | 1966 ft | 209 kts | 62° |
| 2026-04-30 12:42 | 52.22211 | 4.56366 | 1966 ft | 188 kts | 64° |
| 2026-04-30 12:43 | 52.22872 | 4.58080 | 1989 ft | 170 kts | 63° |
| 2026-04-30 12:43 | 52.23498 | 4.59686 | 1997 ft | 167 kts | 62° |
| 2026-04-30 12:43 | 52.24114 | 4.61270 | 1923 ft | 162 kts | 62° |
| 2026-04-30 12:43 | 52.24690 | 4.62763 | 1646 ft | 149 kts | 64° |
| 2026-04-30 12:44 | 52.25224 | 4.64151 | 1392 ft | 139 kts | 64° |
| 2026-04-30 12:44 | 52.25711 | 4.65419 | 1222 ft | 131 kts | 64° |
| 2026-04-30 12:44 | 52.26192 | 4.66668 | 1045 ft | 129 kts | 63° |
| 2026-04-30 12:44 | 52.26667 | 4.67900 | 861 ft | 128 kts | 64° |
| 2026-04-30 12:45 | 52.27142 | 4.69139 | 706 ft | 129 kts | 63° |
| 2026-04-30 12:45 | 52.27623 | 4.70388 | 525 ft | 130 kts | 61° |
| 2026-04-30 12:45 | 52.28102 | 4.71627 | 328 ft | 129 kts | 64° |
| 2026-04-30 12:45 | 52.28589 | 4.72898 | 169 ft | 134 kts | 63° |
| 2026-04-30 12:46 | 52.29077 | 4.74168 | 7 ft | 128 kts | 59° |
| 2026-04-30 12:46 | 52.29466 | 4.75177 | 0 ft | 85 kts | 59° |
| 2026-04-30 12:46 | 52.29737 | 4.75768 | 1 ft | 51 kts | 39° |
| 2026-04-30 12:46 | 52.29871 | 4.75879 | 1 ft | 17 kts | 25° |
| 2026-04-30 12:47 | 52.29978 | 4.75980 | 2 ft | 19 kts | 38° |
| 2026-04-30 12:47 | 52.30058 | 4.76170 | 2 ft | 22 kts | 59° |
| 2026-04-30 12:47 | 52.30145 | 4.76393 | 2 ft | 25 kts | 57° |
| 2026-04-30 12:47 | 52.30242 | 4.76640 | 2 ft | 27 kts | 58° |
| 2026-04-30 12:48 | 52.30345 | 4.76908 | 2 ft | 29 kts | 57° |
| 2026-04-30 12:48 | 52.30476 | 4.77023 | 2 ft | 18 kts | 323° |
| 2026-04-30 12:48 | 52.30589 | 4.76884 | 2 ft | 23 kts | 330° |
| 2026-04-30 12:48 | 52.30649 | 4.76913 | 2 ft | 4 kts | 66° |
| 2026-04-30 12:49 | 52.30653 | 4.76975 | 2 ft | 7 kts | 91° |
| 2026-04-30 12:49 | 52.30652 | 4.77066 | 2 ft | 8 kts | 81° |
| 2026-04-30 12:49 | 52.30675 | 4.77085 | 2 ft | 5 kts | 6° |
| 2026-04-30 12:49 | 52.30709 | 4.77089 | 2 ft | 0 kts | 2° |
| 2026-04-30 12:50 | 52.30710 | 4.77089 | 2 ft | 0 kts | 2° |